sensor_id;sensor_type;location;lat;lon;timestamp;temperature;humidity
5711;DHT22;61291;52.524;13.422;2023-04-24T00:00:32;11.20;99.90
5711;DHT22;61291;52.524;13.422;2023-04-24T00:02:57;11.20;99.90
5711;DHT22;61291;52.524;13.422;2023-04-24T00:05:23;11.20;99.90
5711;DHT22;61291;52.524;13.422;2023-04-24T00:07:49;11.20;99.90
5711;DHT22;61291;52.524;13.422;2023-04-24T00:10:18;11.20;99.90
5711;DHT22;61291;52.524;13.422;2023-04-24T00:12:43;11.20;99.90
5711;DHT22;61291;52.524;13.422;2023-04-24T00:15:09;11.20;99.90
5711;DHT22;61291;52.524;13.422;2023-04-24T00:17:35;11.20;99.90
5711;DHT22;61291;52.524;13.422;2023-04-24T00:20:00;11.20;99.90
5711;DHT22;61291;52.524;13.422;2023-04-24T00:22:30;11.20;99.90
5711;DHT22;61291;52.524;13.422;2023-04-24T00:24:56;11.20;99.90
5711;DHT22;61291;52.524;13.422;2023-04-24T00:27:21;11.10;99.90
5711;DHT22;61291;52.524;13.422;2023-04-24T00:29:47;11.10;99.90
5711;DHT22;61291;52.524;13.422;2023-04-24T00:32:13;11.20;99.90
5711;DHT22;61291;52.524;13.422;2023-04-24T00:34:39;11.30;99.90
5711;DHT22;61291;52.524;13.422;2023-04-24T00:37:05;11.30;99.90
5711;DHT22;61291;52.524;13.422;2023-04-24T00:39:30;11.20;99.90
5711;DHT22;61291;52.524;13.422;2023-04-24T00:41:56;11.20;99.90
5711;DHT22;61291;52.524;13.422;2023-04-24T00:44:22;11.20;99.90
5711;DHT22;61291;52.524;13.422;2023-04-24T00:46:47;11.20;99.90
5711;DHT22;61291;52.524;13.422;2023-04-24T00:49:18;11.10;99.90
5711;DHT22;61291;52.524;13.422;2023-04-24T00:51:43;11.10;99.90
5711;DHT22;61291;52.524;13.422;2023-04-24T00:54:12;11.10;99.90
5711;DHT22;61291;52.524;13.422;2023-04-24T00:56:37;11.00;99.90
5711;DHT22;61291;52.524;13.422;2023-04-24T00:59:03;11.00;99.90
5711;DHT22;61291;52.524;13.422;2023-04-24T01:01:29;11.00;99.90
5711;DHT22;61291;52.524;13.422;2023-04-24T01:03:55;11.00;99.90
5711;DHT22;61291;52.524;13.422;2023-04-24T01:06:23;11.00;99.90
5711;DHT22;61291;52.524;13.422;2023-04-24T01:08:51;11.10;99.90
5711;DHT22;61291;52.524;13.422;2023-04-24T01:11:17;11.10;99.90
5711;DHT22;61291;52.524;13.422;2023-04-24T01:13:43;11.10;99.90
5711;DHT22;61291;52.524;13.422;2023-04-24T01:16:08;11.10;99.90
5711;DHT22;61291;52.524;13.422;2023-04-24T01:18:34;11.10;99.90
5711;DHT22;61291;52.524;13.422;2023-04-24T01:21:00;11.10;99.90
5711;DHT22;61291;52.524;13.422;2023-04-24T01:23:27;11.10;99.90
5711;DHT22;61291;52.524;13.422;2023-04-24T01:25:53;11.10;99.90
5711;DHT22;61291;52.524;13.422;2023-04-24T01:28:18;11.10;99.90
5711;DHT22;61291;52.524;13.422;2023-04-24T01:30:44;11.20;99.90
5711;DHT22;61291;52.524;13.422;2023-04-24T01:33:10;11.10;99.90
5711;DHT22;61291;52.524;13.422;2023-04-24T01:35:37;11.20;99.90
5711;DHT22;61291;52.524;13.422;2023-04-24T01:38:03;11.20;99.90
5711;DHT22;61291;52.524;13.422;2023-04-24T01:40:28;11.30;99.90
5711;DHT22;61291;52.524;13.422;2023-04-24T01:42:54;11.30;99.90
5711;DHT22;61291;52.524;13.422;2023-04-24T01:45:20;11.30;99.90
5711;DHT22;61291;52.524;13.422;2023-04-24T01:47:45;11.30;99.90
5711;DHT22;61291;52.524;13.422;2023-04-24T01:50:12;11.40;99.90
5711;DHT22;61291;52.524;13.422;2023-04-24T01:52:37;11.40;99.90
5711;DHT22;61291;52.524;13.422;2023-04-24T01:55:03;11.50;99.90
5711;DHT22;61291;52.524;13.422;2023-04-24T01:57:30;11.50;99.90
5711;DHT22;61291;52.524;13.422;2023-04-24T01:59:56;11.50;99.90
5711;DHT22;61291;52.524;13.422;2023-04-24T02:02:22;11.40;99.90
5711;DHT22;61291;52.524;13.422;2023-04-24T02:04:52;11.40;99.90
5711;DHT22;61291;52.524;13.422;2023-04-24T02:07:18;11.40;99.90
5711;DHT22;61291;52.524;13.422;2023-04-24T02:09:43;11.40;99.90
5711;DHT22;61291;52.524;13.422;2023-04-24T02:12:09;11.40;99.90
5711;DHT22;61291;52.524;13.422;2023-04-24T02:14:34;11.40;99.90
5711;DHT22;61291;52.524;13.422;2023-04-24T02:17:00;11.40;99.90
5711;DHT22;61291;52.524;13.422;2023-04-24T02:19:26;11.30;99.90
5711;DHT22;61291;52.524;13.422;2023-04-24T02:21:51;11.30;99.90
5711;DHT22;61291;52.524;13.422;2023-04-24T02:24:17;11.30;99.90
5711;DHT22;61291;52.524;13.422;2023-04-24T02:26:42;11.30;99.90
5711;DHT22;61291;52.524;13.422;2023-04-24T02:29:07;11.30;99.90
5711;DHT22;61291;52.524;13.422;2023-04-24T02:31:33;11.20;99.90
5711;DHT22;61291;52.524;13.422;2023-04-24T02:33:59;11.20;99.90
5711;DHT22;61291;52.524;13.422;2023-04-24T02:36:24;11.20;99.90
5711;DHT22;61291;52.524;13.422;2023-04-24T02:38:50;11.30;99.90
5711;DHT22;61291;52.524;13.422;2023-04-24T02:41:15;11.30;99.90
5711;DHT22;61291;52.524;13.422;2023-04-24T02:43:41;11.30;99.90
5711;DHT22;61291;52.524;13.422;2023-04-24T02:46:06;11.40;99.90
5711;DHT22;61291;52.524;13.422;2023-04-24T02:48:32;11.40;99.90
5711;DHT22;61291;52.524;13.422;2023-04-24T02:50:58;11.50;99.90
5711;DHT22;61291;52.524;13.422;2023-04-24T02:53:24;11.50;99.90
5711;DHT22;61291;52.524;13.422;2023-04-24T02:55:49;11.60;99.90
5711;DHT22;61291;52.524;13.422;2023-04-24T02:58:15;11.60;99.90
5711;DHT22;61291;52.524;13.422;2023-04-24T03:00:41;11.60;99.90
5711;DHT22;61291;52.524;13.422;2023-04-24T03:03:06;11.60;99.90
5711;DHT22;61291;52.524;13.422;2023-04-24T03:05:32;11.60;99.90
5711;DHT22;61291;52.524;13.422;2023-04-24T03:07:57;11.60;99.90
5711;DHT22;61291;52.524;13.422;2023-04-24T03:10:39;11.70;99.90
5711;DHT22;61291;52.524;13.422;2023-04-24T03:13:05;11.70;99.90
5711;DHT22;61291;52.524;13.422;2023-04-24T03:15:30;11.80;99.90
5711;DHT22;61291;52.524;13.422;2023-04-24T03:17:56;11.80;99.90
5711;DHT22;61291;52.524;13.422;2023-04-24T03:20:21;11.90;99.90
5711;DHT22;61291;52.524;13.422;2023-04-24T03:22:47;11.90;99.90
5711;DHT22;61291;52.524;13.422;2023-04-24T03:25:12;12.00;99.90
5711;DHT22;61291;52.524;13.422;2023-04-24T03:27:38;12.10;99.90
5711;DHT22;61291;52.524;13.422;2023-04-24T03:30:06;12.10;99.90
5711;DHT22;61291;52.524;13.422;2023-04-24T03:32:31;12.20;99.90
5711;DHT22;61291;52.524;13.422;2023-04-24T03:34:57;12.30;99.90
5711;DHT22;61291;52.524;13.422;2023-04-24T03:37:23;12.30;99.90
5711;DHT22;61291;52.524;13.422;2023-04-24T03:39:48;12.40;99.90
5711;DHT22;61291;52.524;13.422;2023-04-24T03:42:14;12.40;99.90
5711;DHT22;61291;52.524;13.422;2023-04-24T03:44:40;12.40;99.90
5711;DHT22;61291;52.524;13.422;2023-04-24T03:47:05;12.50;99.90
5711;DHT22;61291;52.524;13.422;2023-04-24T03:49:31;12.50;99.90
5711;DHT22;61291;52.524;13.422;2023-04-24T03:51:56;12.50;99.90
5711;DHT22;61291;52.524;13.422;2023-04-24T03:54:22;12.50;99.90
5711;DHT22;61291;52.524;13.422;2023-04-24T03:56:47;12.60;99.90
5711;DHT22;61291;52.524;13.422;2023-04-24T03:59:13;12.50;99.90
5711;DHT22;61291;52.524;13.422;2023-04-24T04:01:38;12.60;99.90
5711;DHT22;61291;52.524;13.422;2023-04-24T04:04:05;12.60;99.90
5711;DHT22;61291;52.524;13.422;2023-04-24T04:06:31;12.60;99.90
5711;DHT22;61291;52.524;13.422;2023-04-24T04:08:57;12.60;99.90
5711;DHT22;61291;52.524;13.422;2023-04-24T04:11:23;12.60;99.90
5711;DHT22;61291;52.524;13.422;2023-04-24T04:13:49;12.60;99.90
5711;DHT22;61291;52.524;13.422;2023-04-24T04:16:14;12.60;99.90
5711;DHT22;61291;52.524;13.422;2023-04-24T04:18:42;12.60;99.90
5711;DHT22;61291;52.524;13.422;2023-04-24T04:21:07;12.60;99.90
5711;DHT22;61291;52.524;13.422;2023-04-24T04:23:33;12.70;99.90
5711;DHT22;61291;52.524;13.422;2023-04-24T04:25:58;12.60;99.90
5711;DHT22;61291;52.524;13.422;2023-04-24T04:28:24;12.60;99.90
5711;DHT22;61291;52.524;13.422;2023-04-24T04:30:50;12.70;99.90
5711;DHT22;61291;52.524;13.422;2023-04-24T04:33:19;12.70;99.90
5711;DHT22;61291;52.524;13.422;2023-04-24T04:35:45;12.70;99.90
5711;DHT22;61291;52.524;13.422;2023-04-24T04:38:14;12.80;99.90
5711;DHT22;61291;52.524;13.422;2023-04-24T04:40:40;12.90;99.90
5711;DHT22;61291;52.524;13.422;2023-04-24T04:43:06;12.90;99.90
5711;DHT22;61291;52.524;13.422;2023-04-24T04:45:31;12.90;99.90
5711;DHT22;61291;52.524;13.422;2023-04-24T04:47:58;12.90;99.90
5711;DHT22;61291;52.524;13.422;2023-04-24T04:50:26;12.90;99.90
5711;DHT22;61291;52.524;13.422;2023-04-24T04:52:52;12.90;99.90
5711;DHT22;61291;52.524;13.422;2023-04-24T04:55:17;13.00;99.90
5711;DHT22;61291;52.524;13.422;2023-04-24T04:57:45;13.10;99.90
5711;DHT22;61291;52.524;13.422;2023-04-24T05:00:11;13.30;99.90
5711;DHT22;61291;52.524;13.422;2023-04-24T05:02:37;13.40;99.90
5711;DHT22;61291;52.524;13.422;2023-04-24T05:05:03;13.40;99.90
5711;DHT22;61291;52.524;13.422;2023-04-24T05:07:29;13.50;99.90
5711;DHT22;61291;52.524;13.422;2023-04-24T05:09:54;13.60;99.90
5711;DHT22;61291;52.524;13.422;2023-04-24T05:12:19;13.70;99.90
5711;DHT22;61291;52.524;13.422;2023-04-24T05:14:45;13.80;99.90
5711;DHT22;61291;52.524;13.422;2023-04-24T05:17:10;13.90;99.90
5711;DHT22;61291;52.524;13.422;2023-04-24T05:19:36;14.10;99.90
5711;DHT22;61291;52.524;13.422;2023-04-24T05:22:03;14.20;99.90
5711;DHT22;61291;52.524;13.422;2023-04-24T05:24:32;14.30;99.90
5711;DHT22;61291;52.524;13.422;2023-04-24T05:26:58;14.40;99.90
5711;DHT22;61291;52.524;13.422;2023-04-24T05:29:24;14.50;99.90
5711;DHT22;61291;52.524;13.422;2023-04-24T05:31:50;14.90;99.90
5711;DHT22;61291;52.524;13.422;2023-04-24T05:34:15;15.10;99.90
5711;DHT22;61291;52.524;13.422;2023-04-24T05:36:42;15.60;99.90
5711;DHT22;61291;52.524;13.422;2023-04-24T05:39:08;16.40;99.90
5711;DHT22;61291;52.524;13.422;2023-04-24T05:41:34;16.60;99.90
5711;DHT22;61291;52.524;13.422;2023-04-24T05:43:59;16.70;99.90
5711;DHT22;61291;52.524;13.422;2023-04-24T05:46:25;17.00;99.90
5711;DHT22;61291;52.524;13.422;2023-04-24T05:48:50;17.60;99.90
5711;DHT22;61291;52.524;13.422;2023-04-24T05:51:16;17.70;99.90
5711;DHT22;61291;52.524;13.422;2023-04-24T05:53:41;17.60;99.90
5711;DHT22;61291;52.524;13.422;2023-04-24T05:56:07;17.50;99.90
5711;DHT22;61291;52.524;13.422;2023-04-24T05:58:33;17.60;99.90
5711;DHT22;61291;52.524;13.422;2023-04-24T06:00:58;17.60;99.90
5711;DHT22;61291;52.524;13.422;2023-04-24T06:03:26;17.90;99.90
5711;DHT22;61291;52.524;13.422;2023-04-24T06:05:52;19.00;99.90
5711;DHT22;61291;52.524;13.422;2023-04-24T06:08:18;20.00;99.90
5711;DHT22;61291;52.524;13.422;2023-04-24T06:10:43;20.70;99.90
5711;DHT22;61291;52.524;13.422;2023-04-24T06:13:09;20.60;99.90
5711;DHT22;61291;52.524;13.422;2023-04-24T06:15:35;20.70;99.90
5711;DHT22;61291;52.524;13.422;2023-04-24T06:18:00;21.00;99.90
5711;DHT22;61291;52.524;13.422;2023-04-24T06:20:26;21.60;99.90
5711;DHT22;61291;52.524;13.422;2023-04-24T06:22:51;22.00;99.90
5711;DHT22;61291;52.524;13.422;2023-04-24T06:25:17;22.70;99.90
5711;DHT22;61291;52.524;13.422;2023-04-24T06:27:43;22.10;99.90
5711;DHT22;61291;52.524;13.422;2023-04-24T06:30:09;21.50;99.90
5711;DHT22;61291;52.524;13.422;2023-04-24T06:32:34;21.10;99.90
5711;DHT22;61291;52.524;13.422;2023-04-24T06:35:00;21.10;99.90
5711;DHT22;61291;52.524;13.422;2023-04-24T06:37:26;21.00;99.90
5711;DHT22;61291;52.524;13.422;2023-04-24T06:39:51;20.60;99.90
5711;DHT22;61291;52.524;13.422;2023-04-24T06:42:17;21.10;99.90
5711;DHT22;61291;52.524;13.422;2023-04-24T06:44:42;23.00;99.90
5711;DHT22;61291;52.524;13.422;2023-04-24T06:47:08;24.30;99.90
5711;DHT22;61291;52.524;13.422;2023-04-24T06:49:38;25.40;98.30
5711;DHT22;61291;52.524;13.422;2023-04-24T06:52:03;26.50;97.00
5711;DHT22;61291;52.524;13.422;2023-04-24T06:54:30;27.00;95.60
5711;DHT22;61291;52.524;13.422;2023-04-24T06:56:56;27.80;94.50
5711;DHT22;61291;52.524;13.422;2023-04-24T06:59:23;28.20;92.90
5711;DHT22;61291;52.524;13.422;2023-04-24T07:01:49;28.50;91.90
5711;DHT22;61291;52.524;13.422;2023-04-24T07:04:14;28.90;91.00
5711;DHT22;61291;52.524;13.422;2023-04-24T07:06:40;29.50;89.70
5711;DHT22;61291;52.524;13.422;2023-04-24T07:09:05;29.50;87.30
5711;DHT22;61291;52.524;13.422;2023-04-24T07:11:31;28.10;85.30
5711;DHT22;61291;52.524;13.422;2023-04-24T07:13:56;27.40;85.20
5711;DHT22;61291;52.524;13.422;2023-04-24T07:16:22;27.30;84.40
5711;DHT22;61291;52.524;13.422;2023-04-24T07:18:47;27.60;83.90
5711;DHT22;61291;52.524;13.422;2023-04-24T07:21:13;28.00;83.50
5711;DHT22;61291;52.524;13.422;2023-04-24T07:23:38;27.90;82.40
5711;DHT22;61291;52.524;13.422;2023-04-24T07:26:06;27.50;81.80
5711;DHT22;61291;52.524;13.422;2023-04-24T07:28:32;26.90;81.90
5711;DHT22;61291;52.524;13.422;2023-04-24T07:30:57;26.90;82.20
5711;DHT22;61291;52.524;13.422;2023-04-24T07:33:24;26.70;81.20
5711;DHT22;61291;52.524;13.422;2023-04-24T07:35:49;26.00;80.80
5711;DHT22;61291;52.524;13.422;2023-04-24T07:38:15;25.20;81.20
5711;DHT22;61291;52.524;13.422;2023-04-24T07:40:40;24.50;81.10
5711;DHT22;61291;52.524;13.422;2023-04-24T07:43:06;24.00;81.30
5711;DHT22;61291;52.524;13.422;2023-04-24T07:45:31;24.20;82.00
5711;DHT22;61291;52.524;13.422;2023-04-24T07:47:58;24.70;81.20
5711;DHT22;61291;52.524;13.422;2023-04-24T07:50:24;23.90;79.70
5711;DHT22;61291;52.524;13.422;2023-04-24T07:52:49;23.00;80.40
5711;DHT22;61291;52.524;13.422;2023-04-24T07:55:15;22.20;81.30
5711;DHT22;61291;52.524;13.422;2023-04-24T07:57:40;21.80;82.00
5711;DHT22;61291;52.524;13.422;2023-04-24T08:00:06;21.40;82.60
5711;DHT22;61291;52.524;13.422;2023-04-24T08:02:33;21.20;82.60
5711;DHT22;61291;52.524;13.422;2023-04-24T08:04:58;21.20;82.90
5711;DHT22;61291;52.524;13.422;2023-04-24T08:07:24;21.30;83.10
5711;DHT22;61291;52.524;13.422;2023-04-24T08:09:49;21.40;83.10
5711;DHT22;61291;52.524;13.422;2023-04-24T08:12:15;21.40;82.40
5711;DHT22;61291;52.524;13.422;2023-04-24T08:14:40;21.40;82.70
5711;DHT22;61291;52.524;13.422;2023-04-24T08:17:06;21.30;82.70
5711;DHT22;61291;52.524;13.422;2023-04-24T08:19:31;21.40;82.90
5711;DHT22;61291;52.524;13.422;2023-04-24T08:21:57;21.60;83.00
5711;DHT22;61291;52.524;13.422;2023-04-24T08:24:22;21.70;83.10
5711;DHT22;61291;52.524;13.422;2023-04-24T08:26:48;21.70;82.60
5711;DHT22;61291;52.524;13.422;2023-04-24T08:29:15;22.00;82.90
5711;DHT22;61291;52.524;13.422;2023-04-24T08:31:41;22.20;82.80
5711;DHT22;61291;52.524;13.422;2023-04-24T08:34:07;22.50;82.10
5711;DHT22;61291;52.524;13.422;2023-04-24T08:36:32;23.00;81.00
5711;DHT22;61291;52.524;13.422;2023-04-24T08:38:58;23.30;80.10
5711;DHT22;61291;52.524;13.422;2023-04-24T08:41:23;23.70;77.60
5711;DHT22;61291;52.524;13.422;2023-04-24T08:43:51;23.80;77.80
5711;DHT22;61291;52.524;13.422;2023-04-24T08:46:18;23.90;78.10
5711;DHT22;61291;52.524;13.422;2023-04-24T08:48:45;24.20;78.00
5711;DHT22;61291;52.524;13.422;2023-04-24T08:51:10;24.40;77.60
5711;DHT22;61291;52.524;13.422;2023-04-24T08:53:36;24.60;77.20
5711;DHT22;61291;52.524;13.422;2023-04-24T08:56:03;24.90;77.10
5711;DHT22;61291;52.524;13.422;2023-04-24T08:58:29;25.10;76.50
5711;DHT22;61291;52.524;13.422;2023-04-24T09:00:56;24.70;76.30
5711;DHT22;61291;52.524;13.422;2023-04-24T09:03:22;24.90;76.50
5711;DHT22;61291;52.524;13.422;2023-04-24T09:05:49;25.00;75.90
5711;DHT22;61291;52.524;13.422;2023-04-24T09:08:18;24.80;75.70
5711;DHT22;61291;52.524;13.422;2023-04-24T09:10:44;24.40;75.10
5711;DHT22;61291;52.524;13.422;2023-04-24T09:13:10;24.30;75.20
5711;DHT22;61291;52.524;13.422;2023-04-24T09:15:36;24.90;75.70
5711;DHT22;61291;52.524;13.422;2023-04-24T09:18:04;25.40;73.80
5711;DHT22;61291;52.524;13.422;2023-04-24T09:20:30;25.20;74.20
5711;DHT22;61291;52.524;13.422;2023-04-24T09:22:57;24.70;74.60
5711;DHT22;61291;52.524;13.422;2023-04-24T09:25:25;24.00;75.90
5711;DHT22;61291;52.524;13.422;2023-04-24T09:28:00;23.40;76.00
5711;DHT22;61291;52.524;13.422;2023-04-24T09:30:27;23.00;77.10
5711;DHT22;61291;52.524;13.422;2023-04-24T09:33:14;23.10;78.00
5711;DHT22;61291;52.524;13.422;2023-04-24T09:35:41;23.50;78.20
5711;DHT22;61291;52.524;13.422;2023-04-24T09:38:08;23.90;78.30
5711;DHT22;61291;52.524;13.422;2023-04-24T09:40:34;24.10;78.10
5711;DHT22;61291;52.524;13.422;2023-04-24T09:43:00;24.10;78.10
5711;DHT22;61291;52.524;13.422;2023-04-24T09:45:28;24.30;78.50
5711;DHT22;61291;52.524;13.422;2023-04-24T09:48:00;24.40;78.50
5711;DHT22;61291;52.524;13.422;2023-04-24T09:50:25;25.20;78.30
5711;DHT22;61291;52.524;13.422;2023-04-24T09:53:05;25.60;77.60
5711;DHT22;61291;52.524;13.422;2023-04-24T09:55:31;25.60;77.10
5711;DHT22;61291;52.524;13.422;2023-04-24T10:00:23;25.50;76.30
5711;DHT22;61291;52.524;13.422;2023-04-24T10:02:51;25.70;76.10
5711;DHT22;61291;52.524;13.422;2023-04-24T10:05:23;25.80;76.10
5711;DHT22;61291;52.524;13.422;2023-04-24T10:07:49;26.20;74.80
5711;DHT22;61291;52.524;13.422;2023-04-24T10:10:14;26.60;74.40
5711;DHT22;61291;52.524;13.422;2023-04-24T10:12:40;26.90;73.70
5711;DHT22;61291;52.524;13.422;2023-04-24T10:15:07;27.00;73.20
5711;DHT22;61291;52.524;13.422;2023-04-24T10:17:35;27.10;72.90
5711;DHT22;61291;52.524;13.422;2023-04-24T10:20:01;27.10;72.90
5711;DHT22;61291;52.524;13.422;2023-04-24T10:22:28;26.80;72.40
5711;DHT22;61291;52.524;13.422;2023-04-24T10:24:56;26.60;72.10
5711;DHT22;61291;52.524;13.422;2023-04-24T10:27:23;26.70;72.00
5711;DHT22;61291;52.524;13.422;2023-04-24T10:29:51;26.60;71.80
5711;DHT22;61291;52.524;13.422;2023-04-24T10:32:18;26.30;71.60
5711;DHT22;61291;52.524;13.422;2023-04-24T10:34:43;26.10;71.90
5711;DHT22;61291;52.524;13.422;2023-04-24T10:37:09;26.20;71.70
5711;DHT22;61291;52.524;13.422;2023-04-24T10:39:35;26.30;72.00
5711;DHT22;61291;52.524;13.422;2023-04-24T10:42:14;26.00;71.90
5711;DHT22;61291;52.524;13.422;2023-04-24T10:44:40;25.30;72.40
5711;DHT22;61291;52.524;13.422;2023-04-24T10:47:12;24.80;73.20
5711;DHT22;61291;52.524;13.422;2023-04-24T10:49:38;24.10;73.40
5711;DHT22;61291;52.524;13.422;2023-04-24T10:52:04;23.70;74.10
5711;DHT22;61291;52.524;13.422;2023-04-24T10:59:44;23.30;75.60
5711;DHT22;61291;52.524;13.422;2023-04-24T11:02:10;23.60;75.60
5711;DHT22;61291;52.524;13.422;2023-04-24T11:04:36;24.10;75.60
5711;DHT22;61291;52.524;13.422;2023-04-24T11:07:05;24.20;75.40
5711;DHT22;61291;52.524;13.422;2023-04-24T11:09:31;24.50;75.60
5711;DHT22;61291;52.524;13.422;2023-04-24T11:12:06;24.80;75.60
5711;DHT22;61291;52.524;13.422;2023-04-24T11:17:31;25.50;72.70
5711;DHT22;61291;52.524;13.422;2023-04-24T11:20:08;25.80;72.80
5711;DHT22;61291;52.524;13.422;2023-04-24T11:22:38;26.20;72.60
5711;DHT22;61291;52.524;13.422;2023-04-24T11:25:06;26.10;71.90
5711;DHT22;61291;52.524;13.422;2023-04-24T11:27:39;25.60;72.00
5711;DHT22;61291;52.524;13.422;2023-04-24T11:30:06;25.50;72.00
5711;DHT22;61291;52.524;13.422;2023-04-24T11:32:42;25.20;72.30
5711;DHT22;61291;52.524;13.422;2023-04-24T11:35:21;25.10;72.50
5711;DHT22;61291;52.524;13.422;2023-04-24T11:37:53;24.50;72.60
5711;DHT22;61291;52.524;13.422;2023-04-24T11:40:20;23.60;72.80
5711;DHT22;61291;52.524;13.422;2023-04-24T11:42:52;22.80;73.60
5711;DHT22;61291;52.524;13.422;2023-04-24T11:45:26;22.20;74.80
5711;DHT22;61291;52.524;13.422;2023-04-24T11:47:54;21.80;76.90
5711;DHT22;61291;52.524;13.422;2023-04-24T11:50:22;22.30;78.80
5711;DHT22;61291;52.524;13.422;2023-04-24T11:52:49;23.10;79.40
5711;DHT22;61291;52.524;13.422;2023-04-24T11:57:43;23.90;78.60
5711;DHT22;61291;52.524;13.422;2023-04-24T12:00:21;24.00;78.90
5711;DHT22;61291;52.524;13.422;2023-04-24T12:02:47;24.00;78.80
5711;DHT22;61291;52.524;13.422;2023-04-24T12:05:26;23.90;78.60
5711;DHT22;61291;52.524;13.422;2023-04-24T12:07:52;23.40;78.70
5711;DHT22;61291;52.524;13.422;2023-04-24T12:10:22;23.00;78.70
5711;DHT22;61291;52.524;13.422;2023-04-24T12:12:48;22.70;79.00
5711;DHT22;61291;52.524;13.422;2023-04-24T12:15:16;22.20;79.30
5711;DHT22;61291;52.524;13.422;2023-04-24T12:17:42;21.60;80.70
5711;DHT22;61291;52.524;13.422;2023-04-24T12:20:08;21.30;81.10
5711;DHT22;61291;52.524;13.422;2023-04-24T12:22:51;21.00;81.80
5711;DHT22;61291;52.524;13.422;2023-04-24T12:25:20;20.90;82.70
5711;DHT22;61291;52.524;13.422;2023-04-24T12:27:51;21.00;82.90
5711;DHT22;61291;52.524;13.422;2023-04-24T12:30:17;21.20;83.30
5711;DHT22;61291;52.524;13.422;2023-04-24T12:32:44;21.70;84.00
5711;DHT22;61291;52.524;13.422;2023-04-24T12:35:10;21.90;83.40
5711;DHT22;61291;52.524;13.422;2023-04-24T12:37:35;22.20;82.70
5711;DHT22;61291;52.524;13.422;2023-04-24T12:42:30;23.10;80.30
5711;DHT22;61291;52.524;13.422;2023-04-24T12:45:01;23.10;77.00
5711;DHT22;61291;52.524;13.422;2023-04-24T12:47:27;23.30;74.70
5711;DHT22;61291;52.524;13.422;2023-04-24T12:49:53;23.50;72.40
5711;DHT22;61291;52.524;13.422;2023-04-24T12:52:24;24.00;71.40
5711;DHT22;61291;52.524;13.422;2023-04-24T12:54:52;24.00;70.30
5711;DHT22;61291;52.524;13.422;2023-04-24T12:57:18;24.00;69.00
5711;DHT22;61291;52.524;13.422;2023-04-24T12:59:43;24.20;68.10
5711;DHT22;61291;52.524;13.422;2023-04-24T13:02:10;24.40;67.10
5711;DHT22;61291;52.524;13.422;2023-04-24T13:04:36;24.50;65.70
5711;DHT22;61291;52.524;13.422;2023-04-24T13:07:01;24.40;64.40
5711;DHT22;61291;52.524;13.422;2023-04-24T13:09:27;24.40;64.10
5711;DHT22;61291;52.524;13.422;2023-04-24T13:11:54;25.00;62.50
5711;DHT22;61291;52.524;13.422;2023-04-24T13:14:19;25.40;62.30
5711;DHT22;61291;52.524;13.422;2023-04-24T13:16:45;25.60;61.40
5711;DHT22;61291;52.524;13.422;2023-04-24T13:19:10;25.60;60.90
5711;DHT22;61291;52.524;13.422;2023-04-24T13:21:36;25.40;59.60
5711;DHT22;61291;52.524;13.422;2023-04-24T13:24:01;25.50;59.50
5711;DHT22;61291;52.524;13.422;2023-04-24T13:26:28;25.70;59.40
5711;DHT22;61291;52.524;13.422;2023-04-24T13:28:54;25.60;58.70
5711;DHT22;61291;52.524;13.422;2023-04-24T13:31:19;25.30;58.70
5711;DHT22;61291;52.524;13.422;2023-04-24T13:33:45;24.80;59.10
5711;DHT22;61291;52.524;13.422;2023-04-24T13:36:10;24.40;58.70
5711;DHT22;61291;52.524;13.422;2023-04-24T13:38:36;23.80;58.80
5711;DHT22;61291;52.524;13.422;2023-04-24T13:41:02;23.50;59.00
5711;DHT22;61291;52.524;13.422;2023-04-24T13:43:27;23.20;59.00
5711;DHT22;61291;52.524;13.422;2023-04-24T13:45:53;22.90;59.00
5711;DHT22;61291;52.524;13.422;2023-04-24T13:48:19;22.80;58.80
5711;DHT22;61291;52.524;13.422;2023-04-24T13:50:44;22.80;59.10
5711;DHT22;61291;52.524;13.422;2023-04-24T13:53:10;22.90;58.90
5711;DHT22;61291;52.524;13.422;2023-04-24T13:55:35;22.90;58.70
5711;DHT22;61291;52.524;13.422;2023-04-24T13:58:02;23.20;58.90
5711;DHT22;61291;52.524;13.422;2023-04-24T14:00:28;23.40;59.10
5711;DHT22;61291;52.524;13.422;2023-04-24T14:02:53;23.50;59.10
5711;DHT22;61291;52.524;13.422;2023-04-24T14:05:19;23.50;58.90
5711;DHT22;61291;52.524;13.422;2023-04-24T14:07:46;23.50;58.80
5711;DHT22;61291;52.524;13.422;2023-04-24T14:10:11;23.10;58.70
5711;DHT22;61291;52.524;13.422;2023-04-24T14:12:37;22.80;58.80
5711;DHT22;61291;52.524;13.422;2023-04-24T14:15:03;22.50;59.00
5711;DHT22;61291;52.524;13.422;2023-04-24T14:17:30;22.60;59.30
5711;DHT22;61291;52.524;13.422;2023-04-24T14:19:56;22.90;59.40
5711;DHT22;61291;52.524;13.422;2023-04-24T14:22:22;22.70;59.40
5711;DHT22;61291;52.524;13.422;2023-04-24T14:24:47;22.30;59.00
5711;DHT22;61291;52.524;13.422;2023-04-24T14:27:13;22.00;58.80
5711;DHT22;61291;52.524;13.422;2023-04-24T14:29:39;21.80;58.90
5711;DHT22;61291;52.524;13.422;2023-04-24T14:32:04;21.80;59.00
5711;DHT22;61291;52.524;13.422;2023-04-24T14:34:30;21.70;59.40
5711;DHT22;61291;52.524;13.422;2023-04-24T14:36:55;21.70;59.20
5711;DHT22;61291;52.524;13.422;2023-04-24T14:39:21;21.90;59.00
5711;DHT22;61291;52.524;13.422;2023-04-24T14:41:47;22.30;58.90
5711;DHT22;61291;52.524;13.422;2023-04-24T14:44:12;22.10;58.40
5711;DHT22;61291;52.524;13.422;2023-04-24T14:46:38;21.70;58.30
5711;DHT22;61291;52.524;13.422;2023-04-24T14:49:03;21.30;58.20
5711;DHT22;61291;52.524;13.422;2023-04-24T14:51:29;21.10;58.20
5711;DHT22;61291;52.524;13.422;2023-04-24T14:53:56;21.10;58.50
5711;DHT22;61291;52.524;13.422;2023-04-24T14:56:21;21.00;59.10
5711;DHT22;61291;52.524;13.422;2023-04-24T14:58:48;21.00;59.00
5711;DHT22;61291;52.524;13.422;2023-04-24T15:01:13;21.10;59.40
5711;DHT22;61291;52.524;13.422;2023-04-24T15:03:39;21.30;59.60
5711;DHT22;61291;52.524;13.422;2023-04-24T15:06:04;21.60;59.80
5711;DHT22;61291;52.524;13.422;2023-04-24T15:08:30;21.60;59.60
5711;DHT22;61291;52.524;13.422;2023-04-24T15:10:55;21.50;59.70
5711;DHT22;61291;52.524;13.422;2023-04-24T15:13:21;21.80;59.70
5711;DHT22;61291;52.524;13.422;2023-04-24T15:15:46;21.70;59.60
5711;DHT22;61291;52.524;13.422;2023-04-24T15:18:12;21.70;59.70
5711;DHT22;61291;52.524;13.422;2023-04-24T15:20:38;21.60;59.70
5711;DHT22;61291;52.524;13.422;2023-04-24T15:23:08;21.60;60.10
5711;DHT22;61291;52.524;13.422;2023-04-24T15:25:34;21.50;60.20
5711;DHT22;61291;52.524;13.422;2023-04-24T15:27:59;21.40;60.10
5711;DHT22;61291;52.524;13.422;2023-04-24T15:30:26;21.40;60.10
5711;DHT22;61291;52.524;13.422;2023-04-24T15:32:51;21.40;60.10
5711;DHT22;61291;52.524;13.422;2023-04-24T15:35:17;21.40;60.20
5711;DHT22;61291;52.524;13.422;2023-04-24T15:37:43;21.40;60.20
5711;DHT22;61291;52.524;13.422;2023-04-24T15:40:08;20.90;59.60